createdAt,value
2018-02-08T00:01:34.307Z,149.25
2018-02-08T00:04:02.327Z,154.73
2018-02-08T00:06:30.398Z,152.18
2018-02-08T00:08:57.940Z,146.43
2018-02-08T00:11:25.512Z,185.83
2018-02-08T00:13:53.067Z,157.43
2018-02-08T00:16:20.616Z,157.85
2018-02-08T00:18:48.180Z,167.13
2018-02-08T00:21:16.635Z,170.60
2018-02-08T00:23:44.190Z,153.87
2018-02-08T00:26:12.063Z,163.90
2018-02-08T00:28:39.606Z,154.90
2018-02-08T00:31:07.959Z,160.53
2018-02-08T00:33:35.849Z,144.80
2018-02-08T00:36:03.431Z,149.50
2018-02-08T00:38:31.003Z,154.87
2018-02-08T00:40:58.582Z,158.65
2018-02-08T00:43:26.133Z,159.30
2018-02-08T00:45:53.683Z,146.00
2018-02-08T00:48:21.539Z,153.30
2018-02-08T00:50:49.091Z,146.20
2018-02-08T00:53:16.634Z,142.90
2018-02-08T00:55:44.234Z,150.10
2018-02-08T00:58:11.792Z,150.33
2018-02-08T01:00:39.331Z,149.20
2018-02-08T01:03:06.931Z,140.53
2018-02-08T01:05:34.476Z,146.62
2018-02-08T01:08:02.428Z,162.87
2018-02-08T01:10:30.024Z,147.90
2018-02-08T01:12:57.574Z,134.73
2018-02-08T01:15:25.111Z,144.77
2018-02-08T01:17:52.680Z,148.93
2018-02-08T01:20:20.224Z,147.17
2018-02-08T01:22:47.775Z,146.27
2018-02-08T01:25:15.648Z,151.90
2018-02-08T01:27:43.195Z,150.13
2018-02-08T01:30:10.736Z,155.57
2018-02-08T01:32:39.409Z,134.43
2018-02-08T01:35:06.971Z,142.47
2018-02-08T01:37:34.515Z,156.00
2018-02-08T01:40:02.087Z,148.03
2018-02-08T01:42:29.631Z,147.43
2018-02-08T01:44:57.171Z,144.70
2018-02-08T01:47:24.743Z,153.93
2018-02-08T01:49:52.284Z,153.63
2018-02-08T01:52:19.875Z,160.98
2018-02-08T01:54:47.942Z,155.70
2018-02-08T01:57:15.527Z,145.73
2018-02-08T01:59:43.064Z,138.87
2018-02-08T02:02:10.695Z,143.77
2018-02-08T02:04:38.242Z,151.20
2018-02-08T02:07:05.779Z,169.00
2018-02-08T02:09:33.615Z,154.63
2018-02-08T02:12:01.315Z,159.07
2018-02-08T02:14:29.619Z,163.57
2018-02-08T02:16:57.515Z,168.40
2018-02-08T02:19:25.064Z,168.23
2018-02-08T02:21:52.603Z,159.87
2018-02-08T02:24:20.171Z,132.07
2018-02-08T02:26:47.710Z,149.47
2018-02-08T02:29:15.550Z,149.98
2018-02-08T02:31:43.115Z,157.37
2018-02-08T02:34:11.438Z,158.52
2018-02-08T02:36:38.975Z,159.17
2018-02-08T02:39:06.999Z,148.48
2018-02-08T02:41:34.544Z,159.33
2018-02-08T02:44:02.090Z,153.17
2018-02-08T02:46:29.663Z,151.50
2018-02-08T02:48:57.205Z,134.87
2018-02-08T02:51:24.759Z,160.18
2018-02-08T02:53:52.324Z,157.10
2018-02-08T02:56:19.862Z,156.43
2018-02-08T02:58:47.399Z,144.67
2018-02-08T03:01:16.084Z,156.95
2018-02-08T03:03:44.431Z,151.40
2018-02-08T03:06:11.966Z,156.27
2018-02-08T03:08:39.536Z,166.80
2018-02-08T03:11:07.419Z,158.47
2018-02-08T03:13:35.166Z,155.47
2018-02-08T03:16:02.731Z,164.43
2018-02-08T03:18:30.272Z,147.23
2018-02-08T03:20:57.815Z,160.10
2018-02-08T03:23:26.230Z,152.05
2018-02-08T03:25:53.772Z,145.50
2018-02-08T03:28:21.322Z,149.37
2018-02-08T03:30:48.889Z,159.07
2018-02-08T03:33:16.514Z,158.55
2018-02-08T03:35:44.057Z,153.43
2018-02-08T03:38:11.623Z,158.93
2018-02-08T03:40:39.163Z,158.43
2018-02-08T03:43:06.703Z,153.27
2018-02-08T03:45:34.584Z,160.37
2018-02-08T03:48:02.123Z,154.43
2018-02-08T03:50:29.667Z,152.97
2018-02-08T03:52:57.254Z,150.13
2018-02-08T03:55:24.791Z,159.33
2018-02-08T03:57:52.331Z,147.43
2018-02-08T04:00:19.903Z,151.02
2018-02-08T04:02:47.464Z,158.67
2018-02-08T04:05:16.535Z,152.18
2018-02-08T04:07:45.439Z,158.13
2018-02-08T04:10:27.826Z,159.30
2018-02-08T04:15:26.799Z,158.10
2018-02-08T04:17:54.340Z,160.43
2018-02-08T04:20:21.880Z,141.27
2018-02-08T04:22:49.790Z,169.87
2018-02-08T04:25:17.354Z,150.13
2018-02-08T04:27:44.910Z,164.40
2018-02-08T04:30:12.479Z,157.80
2018-02-08T04:32:40.024Z,186.20
2018-02-08T04:35:07.573Z,180.45
2018-02-08T04:37:35.167Z,150.53
2018-02-08T04:40:14.580Z,157.33
2018-02-08T04:42:54.187Z,156.47
2018-02-08T04:45:33.391Z,152.43
2018-02-08T04:48:07.798Z,156.10
2018-02-08T04:50:35.338Z,154.20
2018-02-08T04:53:02.876Z,154.53
2018-02-08T04:55:31.286Z,160.43
2018-02-08T04:57:58.851Z,152.07
2018-02-08T05:00:26.478Z,189.23
2018-02-08T05:02:56.830Z,147.00
2018-02-08T05:05:24.371Z,169.82
2018-02-08T05:07:51.906Z,144.47
2018-02-08T05:10:19.490Z,153.02
2018-02-08T05:12:47.032Z,138.73
2018-02-08T05:15:30.851Z,163.57
2018-02-08T05:21:22.071Z,153.77
2018-02-08T05:23:49.606Z,143.37
2018-02-08T05:26:17.147Z,154.43
2018-02-08T05:28:44.745Z,152.20
2018-02-08T05:31:12.294Z,142.63
2018-02-08T05:33:39.838Z,161.33
2018-02-08T05:36:07.403Z,145.00
2018-02-08T05:38:35.041Z,144.53
2018-02-08T05:41:02.595Z,154.52
2018-02-08T05:43:31.012Z,150.93
2018-02-08T05:45:58.639Z,138.95
2018-02-08T05:48:26.251Z,151.40
2018-02-08T05:51:02.242Z,154.80
2018-02-08T05:53:29.791Z,150.63
2018-02-08T05:55:58.135Z,155.93
2018-02-08T05:58:25.715Z,149.93
2018-02-08T06:00:53.264Z,147.23
2018-02-08T06:03:20.807Z,148.48
2018-02-08T06:05:48.943Z,151.53
2018-02-08T06:08:16.654Z,150.70
2018-02-08T06:10:44.208Z,153.97
2018-02-08T06:13:11.797Z,145.93
2018-02-08T06:15:39.338Z,164.33
2018-02-08T06:18:06.883Z,145.90
2018-02-08T06:20:34.451Z,154.70
2018-02-08T06:23:02.484Z,151.77
2018-02-08T06:25:30.048Z,149.97
2018-02-08T06:27:57.667Z,156.87
2018-02-08T06:30:25.207Z,157.43
2018-02-08T06:32:52.750Z,160.60
2018-02-08T06:35:20.323Z,151.60
2018-02-08T06:37:47.871Z,147.97
2018-02-08T06:40:16.514Z,150.75
2018-02-08T06:42:44.102Z,156.40
2018-02-08T06:45:11.639Z,162.40
2018-02-08T06:47:39.183Z,167.93
2018-02-08T06:50:07.519Z,167.83
2018-02-08T06:52:35.103Z,146.60
2018-02-08T06:55:02.651Z,143.13
2018-02-08T06:57:30.223Z,143.23
2018-02-08T06:59:57.762Z,153.83
2018-02-08T07:02:25.309Z,145.90
2018-02-08T07:04:52.879Z,159.77
2018-02-08T07:07:20.419Z,148.68
2018-02-08T07:09:47.968Z,132.87
2018-02-08T07:12:17.611Z,147.75
2018-02-08T07:14:45.256Z,140.67
2018-02-08T07:17:13.724Z,144.40
2018-02-08T07:19:41.290Z,146.07
2018-02-08T07:22:08.831Z,133.30
2018-02-08T07:24:36.518Z,129.27
2018-02-08T07:27:04.083Z,131.10
2018-02-08T07:29:31.618Z,120.93
2018-02-08T07:31:59.159Z,136.40
2018-02-08T07:34:28.102Z,135.63
2018-02-08T07:36:55.644Z,134.53
2018-02-08T07:39:23.241Z,125.32
2018-02-08T07:41:50.787Z,130.10
2018-02-08T07:44:18.803Z,128.60
2018-02-08T07:46:46.349Z,133.27
2018-02-08T07:49:16.354Z,138.82
2018-02-08T07:51:43.899Z,130.97
2018-02-08T07:54:11.453Z,128.27
2018-02-08T07:56:39.857Z,126.60
2018-02-08T07:59:07.410Z,123.07
2018-02-08T08:01:34.951Z,137.60
2018-02-08T08:04:02.524Z,133.15
2018-02-08T08:06:30.075Z,129.98
2018-02-08T08:08:57.751Z,120.03
2018-02-08T08:11:25.319Z,120.10
2018-02-08T08:13:52.856Z,128.13
2018-02-08T08:16:20.388Z,121.93
2018-02-08T08:18:48.488Z,118.33
2018-02-08T08:21:16.428Z,115.67
2018-02-08T08:23:43.962Z,117.93
2018-02-08T08:26:12.361Z,123.03
2018-02-08T08:28:39.943Z,108.33
2018-02-08T08:31:07.481Z,137.13
2018-02-08T08:33:35.099Z,127.07
2018-02-08T08:36:02.642Z,123.00
2018-02-08T08:38:30.196Z,115.87
2018-02-08T08:40:58.102Z,114.47
2018-02-08T08:43:26.419Z,115.93
2018-02-08T08:45:53.977Z,114.50
2018-02-08T08:48:21.760Z,119.97
2018-02-08T08:50:49.308Z,110.87
2018-02-08T08:53:16.863Z,123.67
2018-02-08T08:55:44.463Z,116.93
2018-02-08T08:58:12.021Z,114.73
2018-02-08T09:00:39.563Z,118.40
2018-02-08T09:03:07.822Z,124.23
2018-02-08T09:05:35.367Z,113.27
2018-02-08T09:08:02.915Z,117.03
2018-02-08T09:10:31.279Z,117.17
2018-02-08T09:12:59.603Z,112.30
2018-02-08T09:15:27.927Z,108.93
2018-02-08T09:17:55.547Z,116.95
2018-02-08T09:20:23.089Z,105.93
2018-02-08T09:22:50.627Z,112.65
2018-02-08T09:25:18.771Z,112.40
2018-02-08T09:27:46.771Z,122.47
2018-02-08T09:30:26.478Z,104.35
2018-02-08T09:38:59.061Z,101.87
2018-02-08T09:41:26.599Z,102.20
2018-02-08T09:43:54.147Z,104.40
2018-02-08T09:46:21.771Z,112.23
2018-02-08T09:48:49.302Z,107.20
2018-02-08T09:51:16.839Z,107.63
2018-02-08T09:53:45.168Z,106.70
2018-02-08T09:56:13.633Z,105.37
2018-02-08T09:58:41.163Z,102.03
2018-02-08T10:01:08.727Z,109.63
2018-02-08T10:03:36.279Z,112.73
2018-02-08T10:06:03.822Z,107.30
2018-02-08T10:08:32.379Z,109.17
2018-02-08T10:10:59.919Z,106.13
2018-02-08T10:13:27.459Z,114.82
2018-02-08T10:15:55.022Z,101.33
2018-02-08T10:18:22.563Z,105.90
2018-02-08T10:20:50.108Z,101.20
2018-02-08T10:23:18.442Z,103.80
2018-02-08T10:25:45.978Z,101.57
2018-02-08T10:28:25.535Z,105.18
2018-02-08T10:33:44.386Z,106.63
2018-02-08T10:36:11.926Z,108.10
2018-02-08T10:38:39.476Z,107.40
2018-02-08T10:41:07.811Z,111.17
2018-02-08T10:43:35.353Z,99.00
2018-02-08T10:46:02.880Z,98.00
2018-02-08T10:48:30.742Z,112.10
2018-02-08T10:50:59.080Z,107.53
2018-02-08T10:53:26.618Z,104.95
2018-02-08T10:55:54.172Z,99.70
2018-02-08T10:58:21.719Z,103.00
2018-02-08T11:00:49.263Z,112.20
2018-02-08T11:03:16.840Z,101.70
2018-02-08T11:05:44.380Z,105.90
2018-02-08T11:08:11.931Z,105.30
2018-02-08T11:10:39.715Z,106.30
2018-02-08T11:13:07.258Z,111.93
2018-02-08T11:15:35.561Z,103.87
2018-02-08T11:18:03.114Z,98.50
2018-02-08T11:20:31.428Z,110.87
2018-02-08T11:22:58.976Z,110.43
2018-02-08T11:25:26.946Z,107.97
2018-02-08T11:27:54.486Z,104.20
2018-02-08T11:30:22.447Z,106.37
2018-02-08T11:32:50.878Z,102.40
2018-02-08T11:35:18.420Z,107.87
2018-02-08T11:37:45.962Z,96.73
2018-02-08T11:40:25.172Z,108.18
2018-02-08T11:45:32.839Z,108.37
2018-02-08T11:48:00.388Z,118.27
2018-02-08T11:50:27.952Z,109.80
2018-02-08T11:52:56.039Z,116.13
2018-02-08T11:55:23.572Z,105.73
2018-02-08T11:57:51.114Z,115.47
2018-02-08T12:00:18.797Z,109.05
2018-02-08T12:02:46.334Z,111.07
2018-02-08T12:05:25.371Z,124.05
2018-02-08T12:10:46.466Z,110.07
2018-02-08T12:13:25.472Z,110.68
2018-02-08T12:21:01.448Z,107.93
2018-02-08T12:23:28.983Z,110.87
2018-02-08T12:25:56.526Z,113.47
2018-02-08T12:28:25.584Z,109.57
2018-02-08T12:30:53.915Z,114.20
2018-02-08T12:33:21.459Z,108.00
2018-02-08T12:35:50.672Z,111.00
2018-02-08T12:38:18.223Z,110.87
2018-02-08T12:40:45.774Z,117.80
2018-02-08T12:43:24.435Z,107.25
2018-02-08T12:52:02.376Z,116.87
2018-02-08T12:54:29.907Z,118.35
2018-02-08T12:56:57.452Z,115.37
2018-02-08T12:59:25.010Z,118.10
2018-02-08T13:01:52.542Z,121.10
2018-02-08T13:04:20.084Z,119.03
2018-02-08T13:06:48.172Z,117.53
2018-02-08T13:09:16.555Z,120.22
2018-02-08T13:11:44.095Z,123.97
2018-02-08T13:14:11.874Z,119.07
2018-02-08T13:16:39.411Z,120.90
2018-02-08T13:19:06.947Z,122.43
2018-02-08T13:21:34.531Z,109.28
2018-02-08T13:24:02.077Z,119.27
2018-02-08T13:26:29.619Z,120.97
2018-02-08T13:28:58.559Z,106.20
2018-02-08T13:31:26.259Z,123.93
2018-02-08T13:33:53.794Z,114.20
2018-02-08T13:36:21.896Z,107.87
2018-02-08T13:38:50.198Z,121.68
2018-02-08T13:41:19.534Z,116.00
2018-02-08T13:43:47.099Z,125.60
2018-02-08T13:46:17.179Z,120.30
2018-02-08T13:48:44.710Z,121.87
2018-02-08T13:51:19.683Z,117.83
2018-02-08T13:53:53.068Z,120.23
2018-02-08T13:56:24.506Z,111.10
2018-02-08T13:59:02.762Z,119.47
2018-02-08T14:04:32.674Z,111.70
2018-02-08T14:07:01.023Z,123.80
2018-02-08T14:09:28.608Z,119.93
2018-02-08T14:11:56.144Z,112.43
2018-02-08T14:14:23.759Z,124.33
2018-02-08T14:16:51.297Z,122.97
2018-02-08T14:19:18.826Z,117.07
2018-02-08T14:21:47.156Z,128.05
2018-02-08T14:24:17.251Z,127.62
2018-02-08T14:26:44.831Z,113.97
2018-02-08T14:29:12.869Z,127.53
2018-02-08T14:31:40.762Z,124.73
2018-02-08T14:34:08.414Z,117.80
2018-02-08T14:36:36.764Z,131.33
2018-02-08T14:39:05.181Z,120.47
2018-02-08T14:41:32.843Z,129.15
2018-02-08T14:44:01.729Z,133.48
2018-02-08T14:46:29.283Z,140.80
2018-02-08T14:48:56.832Z,132.70
2018-02-08T14:51:24.419Z,136.95
2018-02-08T14:53:51.965Z,131.10
2018-02-08T14:56:19.512Z,125.90
2018-02-08T14:58:47.544Z,138.93
2018-02-08T15:01:17.215Z,126.67
2018-02-08T15:03:44.771Z,129.60
2018-02-08T15:06:12.348Z,134.40
2018-02-08T15:08:39.899Z,125.33
2018-02-08T15:11:07.455Z,136.67
2018-02-08T15:13:35.033Z,156.13
2018-02-08T15:16:02.576Z,142.10
2018-02-08T15:18:30.267Z,143.23
2018-02-08T15:20:58.291Z,144.33
2018-02-08T15:23:25.846Z,154.70
2018-02-08T15:25:53.399Z,131.30
2018-02-08T15:28:20.974Z,138.40
2018-02-08T15:30:48.614Z,138.82
2018-02-08T15:33:16.721Z,128.23
2018-02-08T15:35:44.442Z,139.37
2018-02-08T15:38:12.034Z,143.43
2018-02-08T15:40:39.587Z,135.33
2018-02-08T15:43:07.636Z,148.47
2018-02-08T15:45:35.976Z,133.77
2018-02-08T15:48:03.535Z,149.95
2018-02-08T15:50:31.119Z,148.80
2018-02-08T15:53:08.821Z,144.90
2018-02-08T15:55:37.179Z,150.00
2018-02-08T15:58:04.735Z,142.10
2018-02-08T16:00:32.289Z,150.93
2018-02-08T16:03:00.695Z,146.47
2018-02-08T16:05:28.242Z,158.20
2018-02-08T16:07:55.847Z,138.57
2018-02-08T16:10:23.499Z,143.50
2018-02-08T16:12:51.819Z,152.57
2018-02-08T16:15:19.940Z,156.73
2018-02-08T16:17:48.291Z,150.18
2018-02-08T16:20:18.118Z,155.18
2018-02-08T16:22:45.671Z,156.70
2018-02-08T16:25:15.721Z,149.80
2018-02-08T16:27:43.268Z,149.43
2018-02-08T16:30:10.844Z,160.67
2018-02-08T16:32:38.439Z,158.10
2018-02-08T16:35:06.419Z,144.97
2018-02-08T16:37:33.973Z,161.30
2018-02-08T16:40:01.590Z,155.98
2018-02-08T16:42:29.908Z,171.20
2018-02-08T16:44:57.471Z,178.35
2018-02-08T16:47:25.831Z,171.60
2018-02-08T16:49:53.396Z,159.00
2018-02-08T16:52:20.944Z,156.43
2018-02-08T16:54:48.562Z,155.80
2018-02-08T16:57:16.996Z,158.63
2018-02-08T16:59:44.547Z,152.97
2018-02-08T17:02:12.107Z,155.20
2018-02-08T17:04:40.113Z,160.57
2018-02-08T17:07:07.664Z,169.60
2018-02-08T17:09:35.951Z,171.30
2018-02-08T17:12:03.500Z,157.87
2018-02-08T17:14:31.336Z,150.63
2018-02-08T17:16:58.906Z,153.23
2018-02-08T17:19:26.442Z,159.40
2018-02-08T17:21:54.750Z,166.83
2018-02-08T17:24:23.091Z,162.03
2018-02-08T17:26:50.766Z,166.20
2018-02-08T17:29:19.072Z,146.90
2018-02-08T17:31:47.367Z,162.17
2018-02-08T17:34:15.544Z,169.65
2018-02-08T17:36:43.467Z,160.63
2018-02-08T17:39:11.035Z,186.73
2018-02-08T17:41:38.639Z,167.67
2018-02-08T17:44:06.195Z,159.57
2018-02-08T17:46:34.722Z,157.32
2018-02-08T17:49:02.418Z,174.13
2018-02-08T17:51:30.939Z,163.73
2018-02-08T17:53:58.556Z,169.10
2018-02-08T17:56:26.099Z,161.65
2018-02-08T17:58:53.648Z,161.50
2018-02-08T18:01:21.988Z,166.98
2018-02-08T18:03:49.559Z,165.15
2018-02-08T18:06:25.723Z,182.75
2018-02-08T18:08:57.967Z,184.43
2018-02-08T18:11:25.525Z,189.02
2018-02-08T18:13:53.072Z,177.43
2018-02-08T18:16:20.659Z,173.70
2018-02-08T18:18:48.191Z,180.57
2018-02-08T18:21:16.518Z,186.07
2018-02-08T18:23:44.132Z,172.90
2018-02-08T18:26:11.667Z,164.37
2018-02-08T18:28:39.449Z,163.23
2018-02-08T18:31:07.142Z,185.07
2018-02-08T18:33:34.684Z,176.43
2018-02-08T18:36:02.229Z,166.57
2018-02-08T18:38:30.311Z,167.43
2018-02-08T18:40:57.864Z,172.57
2018-02-08T18:43:25.414Z,164.47
2018-02-08T18:45:52.976Z,176.53
2018-02-08T18:48:20.511Z,177.43
2018-02-08T18:50:48.052Z,189.00
2018-02-08T18:53:16.917Z,175.43
2018-02-08T18:55:44.462Z,172.30
2018-02-08T18:58:12.008Z,165.87
2018-02-08T19:00:39.616Z,170.55
2018-02-08T19:03:07.983Z,178.03
2018-02-08T19:05:35.568Z,171.23
2018-02-08T19:08:03.160Z,186.57
2018-02-08T19:10:30.699Z,178.07
2018-02-08T19:12:59.038Z,165.60
2018-02-08T19:15:26.684Z,168.73
2018-02-08T19:17:55.097Z,192.00
2018-02-08T19:20:22.800Z,179.07
2018-02-08T19:22:51.186Z,184.70
2018-02-08T19:25:19.955Z,167.33
2018-02-08T19:27:48.315Z,178.80
2018-02-08T19:30:17.312Z,168.65
2018-02-08T19:32:44.876Z,171.40
2018-02-08T19:35:12.417Z,184.40
2018-02-08T19:37:40.023Z,172.13
2018-02-08T19:40:07.979Z,177.37
2018-02-08T19:42:35.594Z,183.05
2018-02-08T19:45:03.359Z,178.70
2018-02-08T19:47:30.900Z,179.05
2018-02-08T19:49:58.450Z,177.98
2018-02-08T19:52:26.092Z,167.93
2018-02-08T19:54:53.703Z,182.17
2018-02-08T19:57:21.247Z,169.97
2018-02-08T19:59:48.980Z,171.97
2018-02-08T20:02:16.994Z,182.73
2018-02-08T20:04:44.540Z,178.38
2018-02-08T20:07:12.216Z,166.20
2018-02-08T20:09:39.756Z,182.40
2018-02-08T20:12:07.290Z,182.93
2018-02-08T20:17:35.955Z,171.93
2018-02-08T20:20:03.603Z,168.65
2018-02-08T20:22:31.235Z,164.70
2018-02-08T20:24:58.832Z,172.23
2018-02-08T20:27:26.723Z,187.83
2018-02-08T20:29:54.290Z,176.37
2018-02-08T20:32:21.851Z,167.77
2018-02-08T20:34:50.188Z,172.27
2018-02-08T20:37:17.733Z,162.93
2018-02-08T20:39:45.282Z,161.70
2018-02-08T20:42:19.683Z,185.97
2018-02-08T20:44:48.040Z,174.40
2018-02-08T20:47:17.287Z,173.40
2018-02-08T20:49:51.297Z,170.30
2018-02-08T20:52:18.874Z,177.97
2018-02-08T20:54:46.448Z,171.80
2018-02-08T20:57:16.360Z,175.43
2018-02-08T20:59:43.895Z,174.93
2018-02-08T21:02:11.636Z,170.63
2018-02-08T21:04:39.312Z,173.90
2018-02-08T21:07:06.852Z,163.43
2018-02-08T21:09:35.197Z,164.97
2018-02-08T21:12:02.815Z,167.30
2018-02-08T21:14:30.403Z,162.83
2018-02-08T21:16:58.052Z,179.37
2018-02-08T21:19:25.644Z,169.85
2018-02-08T21:21:53.347Z,161.03
2018-02-08T21:24:20.919Z,169.46
2018-02-08T21:26:48.526Z,170.18
2018-02-08T21:29:17.212Z,174.97
2018-02-08T21:31:44.766Z,194.23
2018-02-08T21:34:12.426Z,182.13
2018-02-08T21:36:39.968Z,174.33
2018-02-08T21:39:07.527Z,184.45
2018-02-08T21:41:35.109Z,182.83
2018-02-08T21:44:02.707Z,166.33
2018-02-08T21:46:31.017Z,179.07
2018-02-08T21:48:58.648Z,176.33
2018-02-08T21:51:26.964Z,179.93
2018-02-08T21:53:54.508Z,174.62
2018-02-08T21:56:22.415Z,176.98
2018-02-08T21:58:49.976Z,173.50
2018-02-08T22:01:17.545Z,170.07
2018-02-08T22:03:45.413Z,165.40
2018-02-08T22:06:14.607Z,173.13
2018-02-08T22:08:42.186Z,178.03
2018-02-08T22:11:10.114Z,175.87
2018-02-08T22:13:37.929Z,162.67
2018-02-08T22:16:07.193Z,169.27
2018-02-08T22:18:35.611Z,173.90
2018-02-08T22:23:38.650Z,170.97
2018-02-08T22:26:06.190Z,182.40
2018-02-08T22:28:33.735Z,162.63
2018-02-08T22:31:01.311Z,163.63
2018-02-08T22:33:28.851Z,165.13
2018-02-08T22:35:56.384Z,158.23
2018-02-08T22:38:24.580Z,162.10
2018-02-08T22:40:52.088Z,156.10
2018-02-08T22:43:19.652Z,166.30
2018-02-08T22:45:47.524Z,163.73
2018-02-08T22:48:16.454Z,168.18
2018-02-08T22:50:43.987Z,164.30
2018-02-08T22:53:11.560Z,162.65
2018-02-08T22:55:39.108Z,149.97
2018-02-08T22:58:06.643Z,169.33
2018-02-08T23:00:34.731Z,167.77
2018-02-08T23:03:02.283Z,186.40
2018-02-08T23:05:29.829Z,160.63
2018-02-08T23:07:57.397Z,152.87
2018-02-08T23:10:24.934Z,147.77
2018-02-08T23:12:52.487Z,162.80
2018-02-08T23:15:20.065Z,154.87
2018-02-08T23:17:47.602Z,166.53
2018-02-08T23:20:17.695Z,172.62
2018-02-08T23:22:45.862Z,160.63
2018-02-08T23:25:24.410Z,170.77
2018-02-08T23:30:31.807Z,157.93
2018-02-08T23:32:59.344Z,171.03
2018-02-08T23:35:26.905Z,167.75
2018-02-08T23:37:55.042Z,165.30
2018-02-08T23:40:22.593Z,178.93
2018-02-08T23:42:50.131Z,173.00
2018-02-08T23:45:18.495Z,172.10
2018-02-08T23:47:46.487Z,169.43
2018-02-08T23:50:15.555Z,149.82
2018-02-08T23:52:43.121Z,157.27
2018-02-08T23:55:10.667Z,175.90
2018-02-08T23:57:38.208Z,148.80
